createdAt,value
2023-05-06T00:03:01.902Z,0.0
2023-05-06T00:07:24.099Z,0.0
2023-05-06T00:12:30.522Z,0.0
2023-05-06T00:18:32.919Z,0.0
2023-05-06T00:23:03.241Z,0.0
2023-05-06T00:27:49.664Z,0.0
2023-05-06T00:32:56.142Z,0.0
2023-05-06T00:38:02.406Z,0.0
2023-05-06T00:43:09.059Z,0.0
2023-05-06T00:48:19.322Z,0.0
2023-05-06T00:53:21.733Z,0.0
2023-05-06T00:58:48.118Z,0.0
2023-05-06T01:03:34.497Z,0.0
2023-05-06T01:08:40.859Z,0.0
2023-05-06T01:13:47.230Z,0.0
2023-05-06T01:18:53.623Z,0.0
2023-05-06T01:23:59.992Z,0.0
2023-05-06T01:29:50.454Z,0.0
2023-05-06T01:34:12.780Z,0.0
2023-05-06T01:39:19.113Z,0.0
2023-05-06T01:44:29.570Z,0.0
2023-05-06T01:49:56.158Z,0.0
2023-05-06T01:54:52.412Z,0.0
2023-05-06T01:59:46.352Z,0.0
2023-05-06T02:04:52.766Z,0.0
2023-05-06T02:09:59.438Z,0.0
2023-05-06T02:16:22.012Z,0.0
2023-05-06T02:20:12.158Z,0.0
2023-05-06T02:25:18.689Z,0.0
2023-05-06T02:30:45.018Z,0.0
2023-05-06T02:35:35.359Z,0.0
2023-05-06T02:40:37.882Z,0.0
2023-05-06T02:46:08.309Z,0.0
2023-05-06T02:50:51.077Z,0.0
2023-05-06T02:56:17.810Z,0.0
2023-05-06T03:01:24.399Z,0.0
2023-05-06T03:06:10.665Z,0.0
2023-05-06T03:11:52.819Z,0.0
2023-05-06T03:16:28.204Z,0.0
2023-05-06T03:21:54.576Z,0.0
2023-05-06T03:26:30.878Z,0.0
2023-05-06T03:31:46.612Z,0.0
2023-05-06T03:37:17.040Z,0.0
2023-05-06T03:42:20.506Z,0.0
2023-05-06T03:47:07.085Z,0.0
2023-05-06T03:52:40.942Z,5.0
2023-05-06T03:57:23.278Z,10.0
2023-05-06T04:02:32.951Z,10.0
2023-05-06T04:07:59.334Z,15.0
2023-05-06T04:13:07.346Z,20.0
2023-05-06T04:17:57.766Z,30.0
2023-05-06T04:22:59.996Z,35.0
2023-05-06T04:28:30.427Z,45.0
2023-05-06T04:33:02.833Z,50.0
2023-05-06T04:38:19.227Z,60.0
2023-05-06T04:43:29.214Z,60.0
2023-05-06T04:54:16.377Z,75.0
2023-05-06T04:59:23.655Z,80.0
2023-05-06T05:04:54.094Z,90.0
2023-05-06T05:09:50.546Z,95.0
2023-05-06T05:14:42.914Z,100.0
2023-05-06T05:19:49.343Z,110.0
2023-05-06T05:24:59.871Z,115.0
2023-05-06T05:30:02.112Z,125.0
2023-05-06T05:35:08.692Z,130.0
2023-05-06T05:40:15.061Z,135.0
2023-05-06T05:45:21.228Z,140.0
2023-05-06T05:50:17.579Z,145.0
2023-05-06T05:55:54.311Z,150.0
2023-05-06T06:00:40.553Z,160.0
2023-05-06T06:06:06.979Z,165.0
2023-05-06T06:11:13.408Z,175.0
2023-05-06T06:15:49.705Z,185.0
2023-05-06T06:21:06.093Z,195.0
2023-05-06T06:26:12.590Z,200.0
2023-05-06T06:31:18.989Z,210.0
2023-05-06T06:36:25.220Z,220.0
2023-05-06T06:41:31.595Z,230.0
2023-05-06T06:46:38.120Z,240.0
2023-05-06T06:51:44.507Z,615.0
2023-05-06T06:56:50.916Z,585.0
2023-05-06T07:01:47.281Z,450.0
2023-05-06T07:07:31.724Z,490.0
2023-05-06T07:12:10.062Z,400.0
2023-05-06T07:17:16.629Z,470.0
2023-05-06T07:22:22.869Z,475.0
2023-05-06T07:27:29.231Z,505.0
2023-05-06T07:32:25.709Z,430.0
2023-05-06T07:37:42.187Z,485.0
2023-05-06T07:42:39.268Z,520.0
2023-05-06T07:47:55.243Z,505.0
2023-05-06T07:53:02.938Z,570.0
2023-05-06T07:58:09.329Z,565.0
2023-05-06T08:03:36.585Z,615.0
2023-05-06T08:08:22.680Z,595.0
2023-05-06T08:13:29.045Z,670.0
2023-05-06T08:18:35.414Z,755.0
2023-05-06T08:23:42.022Z,800.0
2023-05-06T08:28:48.388Z,835.0
2023-05-06T08:33:55.088Z,880.0
2023-05-06T08:39:01.195Z,865.0
2023-05-06T08:44:07.542Z,660.0
2023-05-06T08:49:13.921Z,895.0
2023-05-06T08:54:10.365Z,605.0
2023-05-06T08:59:26.803Z,1080.0
2023-05-06T09:04:33.297Z,1165.0
2023-05-06T09:09:39.806Z,1195.0
2023-05-06T09:14:46.050Z,1190.0
2023-05-06T09:19:52.438Z,1250.0
2023-05-06T09:24:58.897Z,1335.0
2023-05-06T09:30:05.202Z,1335.0
2023-05-06T09:35:31.593Z,1030.0
2023-05-06T09:40:18.326Z,1095.0
2023-05-06T09:45:24.479Z,810.0
2023-05-06T09:51:06.819Z,1300.0
2023-05-06T09:56:18.313Z,1140.0
2023-05-06T10:01:32.447Z,680.0
2023-05-06T10:06:26.955Z,1070.0
2023-05-06T10:11:37.192Z,1005.0
2023-05-06T10:16:32.423Z,1000.0
2023-05-06T10:21:50.334Z,640.0
2023-05-06T10:27:52.936Z,825.0
2023-05-06T10:32:03.185Z,1170.0
2023-05-06T10:37:10.060Z,1500.0
2023-05-06T10:42:16.444Z,1490.0
2023-05-06T10:47:22.879Z,1370.0
2023-05-06T10:54:05.464Z,1425.0
2023-05-06T10:57:59.648Z,1115.0
2023-05-06T11:03:02.218Z,565.0
2023-05-06T11:07:48.381Z,555.0
2023-05-06T11:12:58.369Z,1385.0
2023-05-06T11:18:04.848Z,1435.0
2023-05-06T11:23:32.686Z,820.0
2023-05-06T11:28:43.089Z,545.0
2023-05-06T11:33:25.441Z,860.0
2023-05-06T11:43:39.769Z,490.0
2023-05-06T11:48:46.514Z,600.0
2023-05-06T11:53:52.636Z,605.0
2023-05-06T11:59:43.154Z,495.0
2023-05-06T12:04:06.214Z,390.0
2023-05-06T12:09:11.789Z,355.0
2023-05-06T12:14:18.173Z,340.0
2023-05-06T12:19:14.683Z,345.0
2023-05-06T12:24:51.092Z,295.0
2023-05-06T12:29:37.418Z,305.0
2023-05-06T12:34:44.154Z,340.0
2023-05-06T12:39:40.488Z,330.0
2023-05-06T12:44:56.883Z,355.0
2023-05-06T12:50:03.329Z,425.0
2023-05-06T12:55:09.724Z,530.0
2023-05-06T13:00:16.065Z,540.0
2023-05-06T13:10:29.025Z,1050.0
2023-05-06T13:15:35.336Z,935.0
2023-05-06T13:20:45.711Z,1225.0
2023-05-06T13:26:00.712Z,1235.0
2023-05-06T13:30:54.537Z,710.0
2023-05-06T13:36:24.891Z,595.0
2023-05-06T13:41:07.647Z,1200.0
2023-05-06T13:46:13.947Z,1250.0
2023-05-06T13:51:20.294Z,1265.0
2023-05-06T13:56:26.806Z,1205.0
2023-05-06T14:01:53.140Z,1075.0
2023-05-06T14:06:39.450Z,615.0
2023-05-06T14:11:49.538Z,585.0
2023-05-06T14:16:59.991Z,445.0
2023-05-06T14:22:02.381Z,460.0
2023-05-06T14:27:08.914Z,500.0
2023-05-06T14:32:39.268Z,450.0
2023-05-06T14:37:45.615Z,390.0
2023-05-06T14:42:27.970Z,445.0
2023-05-06T14:47:34.344Z,515.0
2023-05-06T14:53:02.981Z,375.0
2023-05-06T14:57:47.159Z,300.0
2023-05-06T15:02:53.790Z,260.0
2023-05-06T15:08:04.081Z,285.0
2023-05-06T15:13:06.478Z,315.0
2023-05-06T15:18:12.833Z,310.0
2023-05-06T15:23:19.441Z,305.0
2023-05-06T15:28:25.936Z,355.0
2023-05-06T15:33:35.817Z,320.0
2023-05-06T15:39:02.317Z,255.0
2023-05-06T15:43:48.737Z,240.0
2023-05-06T15:48:45.731Z,250.0
2023-05-06T15:53:51.522Z,215.0
2023-05-06T15:59:08.129Z,160.0
2023-05-06T16:04:28.543Z,135.0
2023-05-06T16:09:20.791Z,150.0
2023-05-06T16:14:27.314Z,105.0
2023-05-06T16:20:11.515Z,85.0
2023-05-06T16:24:43.774Z,85.0
2023-05-06T16:29:50.288Z,85.0
2023-05-06T16:34:46.557Z,80.0
2023-05-06T16:40:02.968Z,85.0
2023-05-06T16:45:09.478Z,75.0
2023-05-06T16:50:15.940Z,70.0
2023-05-06T16:55:22.313Z,65.0
2023-05-06T17:00:28.768Z,70.0
2023-05-06T17:05:25.103Z,65.0
2023-05-06T17:10:41.626Z,55.0
2023-05-06T17:16:08.260Z,45.0
2023-05-06T17:20:58.098Z,35.0
2023-05-06T17:26:08.436Z,35.0
2023-05-06T17:32:23.702Z,35.0
2023-05-06T17:41:58.991Z,35.0
2023-05-06T17:47:53.202Z,35.0
2023-05-06T17:53:00.562Z,35.0
2023-05-06T17:58:06.946Z,35.0
2023-05-06T18:03:51.097Z,40.0
2023-05-06T18:08:24.252Z,40.0
2023-05-06T18:13:30.889Z,40.0
2023-05-06T18:18:37.257Z,35.0
2023-05-06T18:24:18.833Z,25.0
2023-05-06T18:29:26.188Z,20.0
2023-05-06T18:34:32.634Z,15.0
2023-05-06T18:39:39.176Z,10.0
2023-05-06T18:44:44.505Z,10.0
2023-05-06T18:49:51.965Z,5.0
2023-05-06T18:54:59.528Z,5.0
2023-05-06T19:00:05.888Z,0.0
2023-05-06T19:05:12.432Z,0.0
2023-05-06T19:10:08.799Z,0.0
2023-05-06T19:15:49.066Z,0.0
2023-05-06T19:20:31.440Z,0.0
2023-05-06T19:25:37.926Z,0.0
2023-05-06T19:30:45.590Z,0.0
2023-05-06T19:35:51.838Z,0.0
2023-05-06T19:40:58.432Z,0.0
2023-05-06T19:46:04.628Z,0.0
2023-05-06T20:01:28.518Z,0.0
2023-05-06T20:06:35.823Z,0.0
2023-05-06T20:17:37.508Z,0.0
2023-05-06T20:22:10.872Z,0.0
2023-05-06T20:27:17.286Z,0.0
2023-05-06T20:32:13.634Z,0.0
2023-05-06T20:37:30.879Z,0.0
2023-05-06T20:42:37.251Z,0.0
2023-05-06T20:47:43.643Z,0.0
2023-05-06T20:53:18.064Z,0.0
2023-05-06T20:57:56.408Z,0.0
2023-05-06T21:03:02.871Z,0.0
2023-05-06T21:08:29.354Z,0.0
2023-05-06T21:13:05.589Z,0.0
2023-05-06T21:18:22.163Z,0.0
2023-05-06T21:23:28.354Z,0.0
2023-05-06T21:28:34.745Z,0.0
2023-05-06T21:33:41.114Z,0.0
2023-05-06T21:38:47.490Z,0.0
2023-05-06T21:43:53.890Z,0.0
2023-05-06T21:49:00.317Z,0.0
2023-05-06T21:53:56.711Z,0.0
2023-05-06T21:59:54.343Z,0.0
2023-05-06T22:04:18.716Z,0.0
2023-05-06T22:09:26.114Z,0.0
2023-05-06T22:15:30.740Z,0.0
2023-05-06T22:20:13.980Z,0.0
2023-05-06T22:25:20.352Z,0.0
2023-05-06T22:30:26.746Z,0.0
2023-05-06T22:35:33.179Z,0.0
2023-05-06T22:40:39.547Z,0.0
2023-05-06T22:45:45.983Z,0.0
2023-05-06T22:51:12.469Z,0.0
2023-05-06T22:55:58.689Z,0.0
2023-05-06T23:01:08.667Z,0.0
2023-05-06T23:06:15.113Z,0.0
2023-05-06T23:11:25.399Z,0.0
2023-05-06T23:16:17.861Z,0.0
2023-05-06T23:21:34.924Z,0.0
2023-05-06T23:27:37.325Z,0.0
2023-05-06T23:31:37.575Z,0.0
2023-05-06T23:36:54.015Z,0.0
2023-05-06T23:41:50.343Z,0.0
2023-05-06T23:47:44.900Z,0.0
2023-05-06T23:52:03.311Z,0.0
2023-05-06T23:57:09.654Z,0.0
